Time;durP1;ratioP1;P1;durP2;ratioP2;P2;SDS_P1;SDS_P2;PMS_P1;PMS_P2;Temp;Humidity;BMP_temperature;BMP_pressure;BME280_temperature;BME280_humidity;BME280_pressure;Samples;Min_cycle;Max_cycle;Signal;HPM_P1;HPM_P2
2021/06/18 00:01:15;;;;;;;6.80;3.77;;;26.90;54.50;;;;;;5042448;28;20163;-79
2021/06/18 00:03:40;;;;;;;9.67;4.20;;;26.90;54.60;;;;;;5038748;28;20755;-79
2021/06/18 00:06:06;;;;;;;6.53;4.30;;;26.90;54.70;;;;;;5019376;28;20228;-78
2021/06/18 00:08:32;;;;;;;5.80;4.77;;;26.80;54.80;;;;;;5037685;28;20400;-78
2021/06/18 00:10:58;;;;;;;5.97;4.70;;;26.80;54.80;;;;;;5038582;28;20162;-78
2021/06/18 00:13:23;;;;;;;6.00;4.43;;;26.80;54.90;;;;;;5040799;28;20584;-79
2021/06/18 00:15:49;;;;;;;7.40;4.70;;;26.80;55.00;;;;;;5037697;28;20177;-78
2021/06/18 00:18:15;;;;;;;5.80;5.20;;;26.70;55.20;;;;;;5035827;28;20260;-78
2021/06/18 00:20:40;;;;;;;8.27;4.40;;;26.70;55.40;;;;;;5037803;28;20229;-78
2021/06/18 00:23:09;;;;;;;8.30;5.00;;;26.70;55.50;;;;;;5024085;28;20536;-79
2021/06/18 00:25:35;;;;;;;12.83;5.20;;;26.60;55.50;;;;;;5037718;28;20326;-77
2021/06/18 00:28:01;;;;;;;6.63;5.37;;;26.60;55.70;;;;;;5038094;28;20479;-79
2021/06/18 00:30:26;;;;;;;13.20;5.50;;;26.60;55.80;;;;;;5038324;28;20229;-79
2021/06/18 00:32:52;;;;;;;6.20;5.60;;;26.60;55.90;;;;;;5036019;28;20194;-79
2021/06/18 00:35:18;;;;;;;10.90;4.63;;;26.60;56.00;;;;;;5028635;28;20647;-78
2021/06/18 00:37:43;;;;;;;6.90;5.30;;;26.60;56.20;;;;;;5039106;28;20627;-77
2021/06/18 00:40:09;;;;;;;9.63;4.00;;;26.50;56.40;;;;;;5034071;28;20229;-77
2021/06/18 00:42:35;;;;;;;14.37;6.07;;;26.50;56.50;;;;;;5040518;28;20185;-78
2021/06/18 00:45:01;;;;;;;8.30;5.53;;;26.40;56.70;;;;;;5035973;28;20159;-78
2021/06/18 00:47:28;;;;;;;5.57;4.90;;;26.40;56.80;;;;;;5033517;28;20163;-78
2021/06/18 00:49:55;;;;;;;5.97;4.37;;;26.40;56.90;;;;;;5033961;28;20194;-79
2021/06/18 00:52:22;;;;;;;9.23;5.57;;;26.40;57.00;;;;;;5035012;28;20405;-78
2021/06/18 00:54:48;;;;;;;7.80;5.17;;;26.40;57.70;;;;;;5017210;28;20946;-78
2021/06/18 00:57:15;;;;;;;7.00;5.40;;;26.30;57.30;;;;;;5033263;28;20490;-78
2021/06/18 00:59:40;;;;;;;7.93;5.53;;;26.30;57.50;;;;;;5031996;28;20525;-78
2021/06/18 01:02:06;;;;;;;9.27;5.53;;;26.20;57.60;;;;;;5034683;28;20417;-79
2021/06/18 01:04:33;;;;;;;9.80;5.40;;;26.20;57.80;;;;;;5033442;28;20527;-79
2021/06/18 01:07:15;;;;;;;8.17;6.40;;;26.20;57.90;;;;;;5016829;28;20420;-78
2021/06/18 01:10:09;;;;;;;8.20;4.80;;;26.10;58.10;;;;;;5033553;28;20523;-78
2021/06/18 01:13:02;;;;;;;9.93;5.10;;;26.00;58.30;;;;;;5035908;28;20412;-79
2021/06/18 01:15:59;;;;;;;8.00;5.43;;;26.00;58.60;;;;;;5058275;22;20522;-81
2021/06/18 01:18:35;;;;;;;9.53;5.40;;;26.00;58.80;;;;;;5051999;28;21023;-80
2021/06/18 01:21:15;;;;;;;7.47;6.10;;;25.90;58.80;;;;;;5054626;28;20407;-80
2021/06/18 01:23:59;;;;;;;10.70;5.50;;;25.90;58.90;;;;;;5055523;28;20430;-81
2021/06/18 01:26:24;;;;;;;7.80;5.83;;;25.90;59.10;;;;;;5054706;28;20832;-81
2021/06/18 01:28:55;;;;;;;9.40;5.40;;;25.90;59.20;;;;;;5054009;28;20412;-80
2021/06/18 01:31:25;;;;;;;8.20;5.93;;;25.90;59.30;;;;;;5054954;28;20174;-80
2021/06/18 01:33:58;;;;;;;10.60;8.03;;;25.90;59.40;;;;;;5036305;28;20427;-80
2021/06/18 01:36:25;;;;;;;9.07;5.90;;;25.90;59.60;;;;;;5055066;28;20557;-81
2021/06/18 01:38:52;;;;;;;12.83;6.30;;;25.80;59.60;;;;;;5053393;28;20448;-81
2021/06/18 01:41:28;;;;;;;8.90;5.57;;;25.80;59.80;;;;;;5053741;28;20476;-81
2021/06/18 01:43:54;;;;;;;11.07;6.37;;;25.80;59.90;;;;;;5052134;28;20408;-81
2021/06/18 01:46:28;;;;;;;8.67;6.80;;;25.80;60.00;;;;;;5064083;28;20496;-82
2021/06/18 01:49:03;;;;;;;7.87;6.10;;;25.80;60.10;;;;;;5072850;28;20893;-81
2021/06/18 01:51:29;;;;;;;7.23;6.13;;;25.70;60.20;;;;;;5071677;28;20414;-81
2021/06/18 01:53:58;;;;;;;10.93;6.27;;;25.70;60.40;;;;;;5073440;28;20427;-80
2021/06/18 01:56:25;;;;;;;8.13;6.27;;;25.70;60.60;;;;;;5058069;28;20518;-81
2021/06/18 01:58:54;;;;;;;9.13;6.10;;;25.70;60.80;;;;;;5074999;28;20466;-81
2021/06/18 02:01:20;;;;;;;7.83;6.60;;;25.70;61.10;;;;;;5073339;28;20411;-81
2021/06/18 02:03:47;;;;;;;12.97;6.60;;;25.60;61.30;;;;;;5073604;28;20439;-80
2021/06/18 02:06:16;;;;;;;13.80;6.93;;;25.60;61.50;;;;;;5073549;28;20497;-81
2021/06/18 02:08:44;;;;;;;7.63;6.93;;;25.60;61.90;;;;;;5062351;28;20419;-81
2021/06/18 02:11:11;;;;;;;9.07;6.80;;;25.50;62.10;;;;;;5074535;28;20419;-81
2021/06/18 02:13:38;;;;;;;10.77;6.90;;;25.50;62.30;;;;;;5076055;28;20407;-81
2021/06/18 02:16:05;;;;;;;8.10;6.40;;;25.50;62.50;;;;;;5072530;28;20931;-80
2021/06/18 02:18:32;;;;;;;11.00;6.63;;;25.50;62.70;;;;;;5074507;28;20557;-81
2021/06/18 02:21:00;;;;;;;9.10;6.60;;;25.50;62.80;;;;;;5062948;28;20427;-81
2021/06/18 02:23:29;;;;;;;6.80;6.10;;;25.40;62.90;;;;;;5055070;28;20416;-81
2021/06/18 02:26:00;;;;;;;10.53;7.50;;;25.40;63.10;;;;;;5050940;28;20429;-80
2021/06/18 02:28:26;;;;;;;9.40;8.60;;;25.40;63.30;;;;;;5033822;28;20463;-80
2021/06/18 02:30:52;;;;;;;8.03;6.70;;;25.40;63.50;;;;;;5051226;28;20408;-80
2021/06/18 02:33:17;;;;;;;9.13;7.60;;;25.30;63.70;;;;;;5052417;28;20412;-79
2021/06/18 02:35:44;;;;;;;9.83;7.10;;;25.30;63.80;;;;;;5051748;28;20186;-80
2021/06/18 02:38:11;;;;;;;8.70;6.80;;;25.30;63.90;;;;;;5052265;28;20548;-79
2021/06/18 02:40:38;;;;;;;10.83;7.90;;;25.30;64.10;;;;;;5051397;28;20454;-80
2021/06/18 02:43:06;;;;;;;10.00;8.00;;;25.20;64.20;;;;;;5051571;28;20423;-81
2021/06/18 02:45:33;;;;;;;17.17;7.57;;;25.20;64.30;;;;;;5050834;28;20433;-80
2021/06/18 02:48:14;;;;;;;13.40;7.80;;;25.20;64.70;;;;;;5054862;28;20446;-80
2021/06/18 02:50:42;;;;;;;11.43;7.83;;;25.10;65.00;;;;;;5073160;28;20396;-80
2021/06/18 02:53:26;;;;;;;8.60;7.80;;;25.00;65.10;;;;;;5073479;28;20422;-81
2021/06/18 02:55:59;;;;;;;11.83;9.23;;;25.00;65.60;;;;;;5072520;28;20480;-80
2021/06/18 02:58:30;;;;;;;10.60;7.20;;;25.00;65.50;;;;;;5070956;28;20451;-80
2021/06/18 03:00:56;;;;;;;9.20;8.30;;;25.00;65.60;;;;;;5072269;28;20439;-81
2021/06/18 03:03:31;;;;;;;8.00;7.20;;;25.00;65.80;;;;;;5071404;28;20415;-81
2021/06/18 03:06:02;;;;;;;11.70;7.70;;;25.00;66.10;;;;;;5072183;28;20198;-80
2021/06/18 03:08:37;;;;;;;16.23;8.93;;;25.00;65.90;;;;;;5070551;28;20481;-80
2021/06/18 03:11:04;;;;;;;9.70;8.67;;;25.00;66.00;;;;;;5070517;28;20410;-80
2021/06/18 03:13:40;;;;;;;12.97;8.03;;;25.00;66.00;;;;;;5070995;28;20419;-80
2021/06/18 03:16:10;;;;;;;10.30;8.97;;;25.00;66.20;;;;;;5070488;28;20442;-80
2021/06/18 03:18:38;;;;;;;10.97;8.20;;;25.00;66.20;;;;;;5070053;28;20914;-80
2021/06/18 03:21:06;;;;;;;9.60;8.50;;;25.00;65.80;;;;;;5072554;28;20529;-80
2021/06/18 03:23:32;;;;;;;9.90;9.00;;;24.90;65.40;;;;;;5055299;28;20419;-80
2021/06/18 03:26:02;;;;;;;10.17;9.03;;;24.90;65.10;;;;;;5062464;28;20432;-80
2021/06/18 03:28:28;;;;;;;13.80;9.13;;;24.90;65.20;;;;;;5058358;28;20415;-80
2021/06/18 03:30:55;;;;;;;14.40;10.17;;;24.80;65.40;;;;;;5058559;28;20415;-79
2021/06/18 03:33:23;;;;;;;15.60;9.63;;;24.80;65.40;;;;;;5056628;28;20510;-80
2021/06/18 03:35:49;;;;;;;11.33;9.93;;;24.80;65.30;;;;;;5059272;28;20442;-80
2021/06/18 03:38:16;;;;;;;11.10;10.00;;;24.80;65.40;;;;;;5058881;28;20765;-80
2021/06/18 03:40:42;;;;;;;10.53;9.53;;;24.80;65.30;;;;;;5057162;28;20431;-79
2021/06/18 03:43:09;;;;;;;12.90;9.40;;;24.80;65.10;;;;;;5058277;28;20410;-81
2021/06/18 03:45:38;;;;;;;12.53;8.87;;;24.80;65.30;;;;;;5057557;28;20825;-81
2021/06/18 03:48:05;;;;;;;12.50;9.60;;;24.80;65.40;;;;;;5062766;28;20904;-79
2021/06/18 03:50:34;;;;;;;11.43;9.50;;;24.70;65.20;;;;;;5078319;28;20454;-80
2021/06/18 03:53:00;;;;;;;11.23;8.63;;;24.70;65.50;;;;;;5079740;28;20406;-81
2021/06/18 03:55:26;;;;;;;9.70;8.77;;;24.70;65.60;;;;;;5080464;28;20430;-81
2021/06/18 03:57:52;;;;;;;10.20;8.70;;;24.70;65.70;;;;;;5089537;28;20402;-82
2021/06/18 04:00:19;;;;;;;12.43;9.00;;;24.70;65.70;;;;;;5089050;28;20493;-83
2021/06/18 04:02:47;;;;;;;9.00;8.10;;;24.70;65.60;;;;;;5087577;28;20161;-80
2021/06/18 04:05:15;;;;;;;12.73;7.87;;;24.70;65.60;;;;;;5087645;28;20478;-80
2021/06/18 04:07:46;;;;;;;9.40;8.07;;;24.80;65.90;;;;;;5085162;28;20704;-80
2021/06/18 04:10:16;;;;;;;9.83;8.60;;;24.80;65.70;;;;;;5079410;28;20403;-81
2021/06/18 04:12:43;;;;;;;9.00;7.60;;;24.80;65.80;;;;;;5068463;28;20761;-81
2021/06/18 04:15:10;;;;;;;8.47;7.40;;;24.70;65.80;;;;;;5067320;28;20986;-81
2021/06/18 04:17:38;;;;;;;11.93;9.13;;;24.70;66.00;;;;;;5079075;28;20410;-82
2021/06/18 04:20:04;;;;;;;8.60;7.23;;;24.70;66.00;;;;;;5078764;28;20512;-80
2021/06/18 04:22:33;;;;;;;12.50;8.60;;;24.70;66.40;;;;;;5077831;28;20429;-81
2021/06/18 04:24:59;;;;;;;10.37;7.67;;;24.60;66.70;;;;;;5071427;28;20444;-81
2021/06/18 04:27:25;;;;;;;11.47;8.73;;;24.60;67.00;;;;;;5057781;28;20511;-80
2021/06/18 04:29:51;;;;;;;12.43;9.23;;;24.60;67.30;;;;;;5064453;28;20488;-79
2021/06/18 04:32:17;;;;;;;12.97;9.30;;;24.60;67.40;;;;;;5065419;28;20466;-80
2021/06/18 04:34:43;;;;;;;8.23;7.43;;;24.60;67.70;;;;;;5073873;28;20449;-81
2021/06/18 04:37:09;;;;;;;11.00;8.20;;;24.60;67.90;;;;;;5073414;28;20522;-80
2021/06/18 04:39:34;;;;;;;12.60;9.30;;;24.60;67.90;;;;;;5067215;28;20204;-80
2021/06/18 04:42:01;;;;;;;16.37;10.80;;;24.60;67.70;;;;;;5067197;28;20177;-81
2021/06/18 04:44:27;;;;;;;9.87;7.73;;;24.60;67.90;;;;;;5065259;28;20193;-79
2021/06/18 04:46:53;;;;;;;10.43;9.30;;;24.60;67.80;;;;;;5063723;28;20904;-80
2021/06/18 04:49:19;;;;;;;16.83;10.40;;;24.60;67.70;;;;;;5066910;28;20420;-79
2021/06/18 04:51:45;;;;;;;17.40;9.97;;;24.60;67.90;;;;;;5071471;28;20266;-80
2021/06/18 04:54:11;;;;;;;9.40;8.43;;;24.60;68.10;;;;;;5062727;28;20189;-80
2021/06/18 04:56:40;;;;;;;14.67;10.63;;;24.70;67.80;;;;;;5060427;28;20169;-81
2021/06/18 04:59:06;;;;;;;11.40;9.07;;;24.70;67.70;;;;;;5060030;28;20890;-79
2021/06/18 05:01:32;;;;;;;13.60;10.00;;;24.80;67.60;;;;;;5071305;28;20411;-79
2021/06/18 05:03:58;;;;;;;15.43;9.50;;;24.80;67.80;;;;;;5076103;28;20165;-79
2021/06/18 05:06:23;;;;;;;15.70;9.93;;;24.90;67.40;;;;;;5053938;28;20246;-79
2021/06/18 05:08:49;;;;;;;14.40;9.23;;;24.90;67.40;;;;;;5069299;28;20431;-79
2021/06/18 05:11:15;;;;;;;12.03;9.50;;;24.90;67.30;;;;;;5078391;28;20176;-80
2021/06/18 05:13:40;;;;;;;12.50;11.13;;;24.90;67.40;;;;;;5071145;28;20221;-79
2021/06/18 05:16:06;;;;;;;11.50;9.80;;;25.00;67.30;;;;;;5058471;28;20177;-79
2021/06/18 05:18:32;;;;;;;15.33;9.33;;;25.10;66.80;;;;;;5066593;28;20186;-79
2021/06/18 05:20:58;;;;;;;14.70;10.30;;;25.10;66.80;;;;;;5067410;28;20177;-78
2021/06/18 05:23:23;;;;;;;13.83;9.33;;;25.10;66.40;;;;;;5066773;28;20169;-78
2021/06/18 05:25:49;;;;;;;12.10;8.03;;;25.20;66.80;;;;;;5065939;28;20634;-79
2021/06/18 05:28:15;;;;;;;12.00;9.27;;;25.20;66.40;;;;;;5065356;28;20184;-79
2021/06/18 05:30:41;;;;;;;15.90;9.57;;;25.30;66.10;;;;;;5049184;28;20193;-78
2021/06/18 05:33:06;;;;;;;15.27;9.67;;;25.30;66.20;;;;;;5077316;28;20566;-79
2021/06/18 05:35:32;;;;;;;11.83;8.30;;;25.40;66.10;;;;;;5078961;28;20250;-79
2021/06/18 05:37:57;;;;;;;19.43;9.60;;;25.50;65.90;;;;;;5071289;28;20162;-79
2021/06/18 05:40:23;;;;;;;9.50;8.50;;;25.50;65.40;;;;;;5072744;28;20188;-78
2021/06/18 05:42:49;;;;;;;13.00;9.37;;;25.60;65.60;;;;;;5071416;28;20185;-79
2021/06/18 05:45:15;;;;;;;15.27;10.53;;;25.60;65.40;;;;;;5065031;28;20190;-77
2021/06/18 05:47:40;;;;;;;17.47;9.13;;;25.60;65.00;;;;;;5075293;28;20161;-78
2021/06/18 05:50:07;;;;;;;14.50;9.43;;;25.70;64.90;;;;;;5075479;28;20638;-80
2021/06/18 05:52:33;;;;;;;13.70;8.93;;;25.80;64.40;;;;;;5072651;28;20177;-78
2021/06/18 05:54:59;;;;;;;13.90;9.50;;;25.80;64.30;;;;;;5067993;28;20489;-79
2021/06/18 05:57:25;;;;;;;11.80;8.50;;;26.00;64.10;;;;;;5069332;28;20423;-80
2021/06/18 05:59:50;;;;;;;13.33;9.90;;;26.10;63.90;;;;;;5075286;28;20662;-78
2021/06/18 06:02:18;;;;;;;18.33;9.60;;;26.50;63.50;;;;;;5076327;28;20173;-79
2021/06/18 06:04:44;;;;;;;12.10;9.43;;;27.80;60.00;;;;;;5060159;28;20185;-82
2021/06/18 06:07:10;;;;;;;18.17;11.77;;;29.60;56.30;;;;;;5076250;28;20753;-79
2021/06/18 06:09:35;;;;;;;16.63;10.17;;;31.20;52.80;;;;;;5066640;28;20166;-78
2021/06/18 06:12:01;;;;;;;11.70;9.47;;;32.60;49.70;;;;;;5072294;28;20240;-79
2021/06/18 06:14:27;;;;;;;11.40;8.63;;;33.70;47.10;;;;;;5077028;28;20209;-78
2021/06/18 06:16:53;;;;;;;15.40;9.73;;;34.30;45.30;;;;;;5070648;28;20236;-78
2021/06/18 06:19:19;;;;;;;13.20;10.87;;;35.00;44.00;;;;;;5089648;28;20191;-80
2021/06/18 06:21:45;;;;;;;13.57;10.60;;;35.60;42.60;;;;;;5081012;28;20191;-79
2021/06/18 06:24:14;;;;;;;13.63;10.03;;;35.90;41.50;;;;;;5072585;28;20428;-79
2021/06/18 06:26:41;;;;;;;14.63;9.93;;;35.90;41.20;;;;;;5071256;28;20161;-80
2021/06/18 06:29:07;;;;;;;12.83;10.50;;;35.80;41.00;;;;;;5080284;28;20421;-79
2021/06/18 06:31:32;;;;;;;11.60;9.43;;;35.60;41.10;;;;;;5064768;28;20443;-79
2021/06/18 06:33:58;;;;;;;17.53;9.93;;;35.30;41.10;;;;;;5068239;28;20188;-80
2021/06/18 06:36:25;;;;;;;15.57;9.10;;;34.80;42.00;;;;;;5069696;28;20251;-80
2021/06/18 06:38:51;;;;;;;11.23;8.60;;;34.50;42.70;;;;;;5069383;28;20463;-79
2021/06/18 06:41:17;;;;;;;10.73;9.63;;;34.60;42.60;;;;;;5061663;28;20200;-80
2021/06/18 06:43:43;;;;;;;10.17;9.10;;;35.00;42.10;;;;;;5079814;28;20179;-80
2021/06/18 06:46:08;;;;;;;26.23;9.90;;;35.70;40.60;;;;;;5075639;28;20169;-79
2021/06/18 06:48:34;;;;;;;14.40;8.60;;;36.50;39.80;;;;;;5059130;28;20173;-79
2021/06/18 06:50:59;;;;;;;12.90;8.27;;;37.40;38.70;;;;;;5063820;28;20178;-79
2021/06/18 06:53:25;;;;;;;14.17;9.90;;;38.20;37.00;;;;;;5081977;28;20259;-79
2021/06/18 06:55:53;;;;;;;10.33;9.30;;;38.60;36.10;;;;;;5078364;28;20307;-79
2021/06/18 06:58:19;;;;;;;17.43;9.33;;;38.00;35.80;;;;;;5076841;28;20172;-81
2021/06/18 07:00:46;;;;;;;18.23;10.50;;;37.10;37.30;;;;;;5063773;28;20968;-80
2021/06/18 07:03:12;;;;;;;13.33;9.07;;;37.30;37.40;;;;;;5053792;22;20610;-78
2021/06/18 07:05:37;;;;;;;14.10;8.93;;;38.10;36.20;;;;;;5036819;28;20508;-78
2021/06/18 07:08:17;;;;;;;12.20;7.83;;;38.00;36.00;;;;;;5058172;28;20173;-76
2021/06/18 07:10:43;;;;;;;21.47;9.30;;;38.50;35.20;;;;;;5052274;28;20235;-76
2021/06/18 07:13:09;;;;;;;11.70;8.90;;;39.30;34.60;;;;;;5052621;28;20763;-76
2021/06/18 07:15:35;;;;;;;13.20;9.27;;;40.20;33.30;;;;;;5053020;28;20169;-76
2021/06/18 07:18:01;;;;;;;16.23;10.40;;;40.10;33.10;;;;;;5054180;28;20244;-76
2021/06/18 07:20:27;;;;;;;12.07;10.77;;;38.90;33.60;;;;;;5052340;28;20520;-77
2021/06/18 07:22:52;;;;;;;12.80;8.70;;;37.20;35.70;;;;;;5036626;28;20436;-76
2021/06/18 07:25:18;;;;;;;18.53;9.60;;;35.50;38.70;;;;;;5051021;28;20166;-77
2021/06/18 07:27:44;;;;;;;15.00;8.63;;;34.50;40.40;;;;;;5051731;28;20186;-76
2021/06/18 07:30:10;;;;;;;11.37;8.80;;;33.70;41.70;;;;;;5036087;28;20675;-76
2021/06/18 07:32:35;;;;;;;10.27;8.30;;;33.00;43.10;;;;;;5032515;28;20171;-75
2021/06/18 07:35:03;;;;;;;16.63;10.17;;;32.50;44.40;;;;;;5038198;28;20455;-77
2021/06/18 07:37:28;;;;;;;15.27;8.50;;;32.00;45.00;;;;;;5051190;28;20251;-76
2021/06/18 07:39:54;;;;;;;11.00;8.63;;;31.60;45.90;;;;;;5048631;28;20975;-76
2021/06/18 07:42:20;;;;;;;10.33;8.67;;;31.40;46.60;;;;;;5033131;28;20205;-76
2021/06/18 07:44:46;;;;;;;10.53;8.13;;;31.20;47.10;;;;;;5044999;28;20277;-75
2021/06/18 07:47:12;;;;;;;10.43;9.13;;;31.00;47.90;;;;;;5032355;28;20264;-76
2021/06/18 07:49:37;;;;;;;11.80;7.80;;;30.90;48.20;;;;;;5042291;28;20257;-76
2021/06/18 07:52:03;;;;;;;18.57;9.47;;;30.80;48.10;;;;;;5038912;28;20158;-76
2021/06/18 07:54:29;;;;;;;15.03;7.93;;;30.70;48.10;;;;;;5038905;28;20553;-76
2021/06/18 07:56:55;;;;;;;12.23;7.67;;;30.60;48.40;;;;;;5032513;28;20433;-76
2021/06/18 07:59:21;;;;;;;11.27;7.50;;;30.70;48.60;;;;;;5040059;28;20190;-76
2021/06/18 08:01:47;;;;;;;13.50;7.40;;;30.70;48.00;;;;;;5043119;28;20878;-77
2021/06/18 08:04:13;;;;;;;13.30;9.27;;;30.70;48.20;;;;;;5033665;28;20445;-76
2021/06/18 08:06:38;;;;;;;12.10;8.70;;;30.50;48.60;;;;;;5043880;28;20221;-76
2021/06/18 08:09:05;;;;;;;10.50;7.70;;;30.20;49.00;;;;;;5034962;28;20205;-76
2021/06/18 08:11:32;;;;;;;11.40;9.43;;;30.10;49.20;;;;;;5036114;28;20166;-77
2021/06/18 08:13:58;;;;;;;12.70;8.03;;;29.80;49.60;;;;;;5044043;28;20478;-77
2021/06/18 08:16:23;;;;;;;17.60;11.50;;;29.50;50.30;;;;;;5050373;28;20777;-78
2021/06/18 08:18:49;;;;;;;9.53;8.27;;;29.40;50.90;;;;;;5056656;28;20210;-77
2021/06/18 08:21:15;;;;;;;11.03;8.63;;;29.40;51.00;;;;;;5047143;28;20188;-76
2021/06/18 08:23:41;;;;;;;14.97;8.30;;;29.40;50.80;;;;;;5044577;28;20265;-76
2021/06/18 08:26:07;;;;;;;11.63;8.00;;;29.30;50.70;;;;;;5057360;28;20408;-77
2021/06/18 08:28:33;;;;;;;11.97;8.43;;;29.30;51.00;;;;;;5045642;28;20195;-77
2021/06/18 08:30:59;;;;;;;12.27;8.47;;;29.30;51.20;;;;;;5050863;28;20190;-77
2021/06/18 08:33:25;;;;;;;11.60;7.63;;;29.40;51.40;;;;;;5052477;28;20416;-76
2021/06/18 08:35:51;;;;;;;11.47;8.97;;;29.40;51.40;;;;;;5053904;28;20431;-74
2021/06/18 08:38:17;;;;;;;9.80;7.67;;;29.60;51.40;;;;;;5049328;28;20452;-77
2021/06/18 08:40:43;;;;;;;16.83;8.27;;;29.70;51.20;;;;;;5036487;28;20623;-75
2021/06/18 08:43:09;;;;;;;8.97;8.00;;;29.90;50.80;;;;;;5041992;28;20785;-76
2021/06/18 08:45:35;;;;;;;12.47;7.70;;;30.10;50.10;;;;;;5052183;28;20513;-75
2021/06/18 08:48:01;;;;;;;11.30;8.07;;;30.30;48.80;;;;;;5047199;28;20198;-76
2021/06/18 08:50:28;;;;;;;8.77;7.87;;;30.30;48.20;;;;;;5045205;28;20173;-76
2021/06/18 08:53:02;;;;;;;13.90;7.70;;;30.10;48.50;;;;;;5033596;28;20450;-76
2021/06/18 08:55:31;;;;;;;13.60;8.73;;;29.90;48.40;;;;;;5037783;28;20436;-75
2021/06/18 08:58:00;;;;;;;14.70;7.60;;;29.80;49.10;;;;;;5034514;28;20444;-75
2021/06/18 09:00:27;;;;;;;10.30;7.57;;;29.90;49.30;;;;;;5030098;28;20583;-76
2021/06/18 09:02:55;;;;;;;11.53;10.03;;;29.90;49.40;;;;;;5052903;28;20441;-78
2021/06/18 09:05:22;;;;;;;10.57;7.33;;;30.00;49.30;;;;;;5048001;28;20510;-76
2021/06/18 09:08:04;;;;;;;10.13;9.10;;;30.10;49.30;;;;;;5039140;28;20437;-75
2021/06/18 09:10:40;;;;;;;13.80;8.70;;;30.20;48.80;;;;;;5056771;28;20434;-76
2021/06/18 09:13:31;;;;;;;12.10;8.43;;;30.40;48.70;;;;;;5057184;28;20424;-75
2021/06/18 09:15:59;;;;;;;11.50;9.07;;;30.80;48.50;;;;;;5056777;28;20431;-76
2021/06/18 09:18:32;;;;;;;11.90;8.83;;;31.40;47.60;;;;;;5054224;28;20525;-76
2021/06/18 09:21:09;;;;;;;11.57;7.97;;;32.20;46.30;;;;;;5051566;28;20488;-75
2021/06/18 09:23:38;;;;;;;8.03;5.33;;;33.00;43.90;;;;;;5052473;28;20400;-76
2021/06/18 09:26:30;;;;;;;7.33;6.63;;;33.50;42.40;;;;;;5033765;28;20545;-76
2021/06/18 09:29:11;;;;;;;10.03;6.50;;;34.10;40.40;;;;;;5032492;28;20460;-76
2021/06/18 09:31:49;;;;;;;8.60;7.70;;;34.30;38.60;;;;;;5048243;28;20827;-78
2021/06/18 09:35:18;;;;;;;12.87;7.63;;;34.10;38.90;;;;;;5042021;28;20508;-76
2021/06/18 09:37:42;;;;;;;12.10;7.57;;;34.00;39.90;;;;;;5031975;28;21007;-76
2021/06/18 09:40:17;;;;;;;18.27;8.10;;;33.90;40.20;;;;;;5039649;28;20610;-77
2021/06/18 09:43:00;;;;;;;20.80;13.20;;;34.20;40.10;;;;;;5036747;28;20416;-76
2021/06/18 09:45:31;;;;;;;10.93;7.07;;;34.80;40.00;;;;;;5048406;28;20424;-76
2021/06/18 09:48:10;;;;;;;9.37;7.00;;;35.20;38.30;;;;;;5052560;28;20812;-75
2021/06/18 09:50:39;;;;;;;10.87;7.10;;;35.10;38.00;;;;;;5047585;28;20496;-75
2021/06/18 09:53:12;;;;;;;11.93;6.63;;;34.80;37.90;;;;;;5046308;28;20790;-75
2021/06/18 09:55:38;;;;;;;13.40;6.37;;;34.70;38.30;;;;;;5046804;28;20477;-76
2021/06/18 09:58:04;;;;;;;9.73;6.13;;;35.20;36.80;;;;;;5035961;28;20456;-76
2021/06/18 10:00:30;;;;;;;9.80;7.97;;;36.30;35.80;;;;;;5041298;28;20468;-76
2021/06/18 10:03:01;;;;;;;9.43;8.00;;;37.70;34.40;;;;;;5037372;28;20197;-77
2021/06/18 10:05:36;;;;;;;10.90;9.30;;;39.10;32.80;;;;;;5045741;28;20173;-76
2021/06/18 10:08:03;;;;;;;11.37;7.80;;;40.10;31.10;;;;;;5030965;28;20463;-77
2021/06/18 10:10:31;;;;;;;9.40;7.70;;;40.00;30.50;;;;;;5041315;28;20425;-77
2021/06/18 10:12:59;;;;;;;14.03;7.80;;;40.20;30.20;;;;;;5038093;28;20477;-78
2021/06/18 10:15:29;;;;;;;9.15;7.05;;;40.50;29.60;;;;;;5038595;28;20394;-77
2021/06/18 10:17:56;;;;;;;8.90;7.53;;;40.80;28.70;;;;;;5032188;28;20451;-78
2021/06/18 10:20:29;;;;;;;12.32;8.00;;;41.10;28.20;;;;;;5037853;28;20196;-78
2021/06/18 10:23:10;;;;;;;10.68;7.80;;;40.90;28.60;;;;;;5057895;28;20169;-77
2021/06/18 10:25:53;;;;;;;8.18;7.47;;;41.30;28.40;;;;;;5050406;28;20327;-76
2021/06/18 10:28:30;;;;;;;11.38;8.30;;;41.40;28.00;;;;;;5051868;28;20185;-76
2021/06/18 10:30:57;;;;;;;8.82;7.60;;;41.60;28.00;;;;;;5050428;28;20169;-77
2021/06/18 10:33:26;;;;;;;8.13;7.10;;;41.90;27.80;;;;;;5035040;28;20170;-77
2021/06/18 10:36:25;;;;;;;7.82;7.07;;;41.80;27.40;;;;;;5030541;28;20177;-77
2021/06/18 10:39:24;;;;;;;10.25;7.30;;;41.10;27.50;;;;;;5015573;28;20205;-76
2021/06/18 10:41:57;;;;;;;10.70;7.82;;;40.10;28.20;;;;;;5022316;28;20354;-78
2021/06/18 10:44:50;;;;;;;10.10;9.07;;;39.70;28.80;;;;;;5041006;28;20230;-76
2021/06/18 10:47:25;;;;;;;13.33;9.90;;;38.50;30.00;;;;;;5033947;28;20520;-77
2021/06/18 10:49:52;;;;;;;7.87;6.33;;;37.40;31.70;;;;;;5030970;28;20420;-76
2021/06/18 10:52:34;;;;;;;8.53;6.87;;;36.60;33.00;;;;;;5032546;28;20428;-76
2021/06/18 10:55:00;;;;;;;18.53;6.97;;;35.90;33.80;;;;;;5034175;28;20417;-76
2021/06/18 10:57:27;;;;;;;7.00;6.30;;;35.60;34.20;;;;;;5041784;28;20494;-77
2021/06/18 10:59:55;;;;;;;9.87;6.97;;;35.40;34.80;;;;;;5030689;28;20451;-76
2021/06/18 11:02:21;;;;;;;7.87;6.13;;;35.50;35.10;;;;;;5034087;28;20827;-77
2021/06/18 11:04:52;;;;;;;8.10;5.70;;;35.50;35.00;;;;;;5051708;28;20419;-77
2021/06/18 11:07:38;;;;;;;12.80;5.83;;;35.40;35.10;;;;;;5056231;28;20266;-76
2021/06/18 11:10:03;;;;;;;7.30;5.80;;;35.40;35.00;;;;;;5054976;28;20416;-77
2021/06/18 11:12:29;;;;;;;8.33;6.20;;;35.20;35.20;;;;;;5053248;28;20413;-76
2021/06/18 11:14:56;;;;;;;8.20;5.13;;;34.90;35.20;;;;;;5053543;28;20602;-77
2021/06/18 11:17:41;;;;;;;8.30;5.23;;;34.60;34.80;;;;;;5048689;28;20186;-77
2021/06/18 11:20:11;;;;;;;5.97;5.03;;;34.40;33.90;;;;;;5046254;28;20487;-76
2021/06/18 11:23:03;;;;;;;8.17;4.90;;;34.20;33.80;;;;;;5030689;28;20394;-77
2021/06/18 11:25:40;;;;;;;12.93;4.67;;;34.20;33.60;;;;;;5040640;28;20424;-77
2021/06/18 11:28:21;;;;;;;6.37;4.40;;;34.10;33.70;;;;;;5040195;28;20768;-76
2021/06/18 11:30:58;;;;;;;4.63;4.07;;;34.00;33.30;;;;;;5030652;28;20996;-76
2021/06/18 11:33:36;;;;;;;9.53;4.30;;;34.00;33.00;;;;;;5020680;28;20420;-77
2021/06/18 11:38:48;;;;;;;12.27;4.30;;;34.00;32.50;;;;;;5051855;28;20456;-76
2021/06/18 11:41:19;;;;;;;7.47;4.87;;;34.00;32.20;;;;;;5033529;28;20408;-77
2021/06/18 11:43:45;;;;;;;9.50;4.23;;;33.90;32.00;;;;;;5047550;28;20504;-77
2021/06/18 11:46:11;;;;;;;8.07;3.63;;;33.80;32.30;;;;;;5044492;28;20475;-76
2021/06/18 11:48:38;;;;;;;9.00;3.60;;;33.70;32.30;;;;;;5056788;28;20453;-77
2021/06/18 11:51:04;;;;;;;6.93;4.57;;;33.70;32.10;;;;;;5054540;28;20520;-77
2021/06/18 11:53:38;;;;;;;11.33;3.33;;;33.70;32.10;;;;;;5054919;28;20504;-76
2021/06/18 11:56:04;;;;;;;7.90;4.90;;;33.90;30.70;;;;;;5049599;28;20384;-76
2021/06/18 11:58:40;;;;;;;5.27;3.67;;;33.90;30.00;;;;;;5032545;28;20448;-77
2021/06/18 12:01:21;;;;;;;10.10;3.60;;;34.10;30.00;;;;;;5034803;28;20464;-77
2021/06/18 12:03:52;;;;;;;7.40;3.47;;;34.10;29.80;;;;;;5038346;28;20416;-77
2021/06/18 12:06:34;;;;;;;6.73;3.57;;;34.10;30.10;;;;;;5053526;28;20834;-77
2021/06/18 12:09:08;;;;;;;7.60;3.57;;;34.10;30.00;;;;;;5042005;28;20391;-78
2021/06/18 12:11:44;;;;;;;13.63;5.23;;;34.00;30.50;;;;;;5041848;28;20406;-75
2021/06/18 12:14:12;;;;;;;6.93;3.13;;;34.20;30.20;;;;;;5032700;28;20970;-79
2021/06/18 12:16:41;;;;;;;6.77;3.57;;;34.20;29.60;;;;;;5038523;28;20440;-76
2021/06/18 12:19:22;;;;;;;8.33;3.50;;;34.20;28.70;;;;;;5035537;28;20461;-76
2021/06/18 12:22:02;;;;;;;8.13;3.47;;;34.20;28.20;;;;;;5045719;28;20415;-76
2021/06/18 12:24:35;;;;;;;5.50;3.30;;;34.30;28.60;;;;;;5054714;28;20399;-76
2021/06/18 12:27:04;;;;;;;8.97;3.23;;;34.30;28.60;;;;;;5054133;28;20448;-77
2021/06/18 12:29:30;;;;;;;7.33;3.60;;;34.30;28.60;;;;;;5055280;28;20416;-77
2021/06/18 12:31:57;;;;;;;3.70;3.13;;;34.20;28.90;;;;;;5057859;28;20432;-76
2021/06/18 12:34:24;;;;;;;6.13;3.63;;;34.20;29.60;;;;;;5045123;28;20478;-76
2021/06/18 12:37:07;;;;;;;5.63;3.37;;;34.20;29.20;;;;;;5046907;28;20430;-76
2021/06/18 12:39:55;;;;;;;6.33;3.53;;;34.20;29.00;;;;;;5055813;28;20447;-77
2021/06/18 12:42:26;;;;;;;5.57;3.90;;;34.00;29.20;;;;;;5049194;28;20952;-77
2021/06/18 12:45:22;;;;;;;8.70;4.67;;;34.00;29.20;;;;;;5042482;28;20417;-76
2021/06/18 12:48:19;;;;;;;8.37;4.30;;;34.00;30.00;;;;;;5033342;28;20479;-75
2021/06/18 12:50:57;;;;;;;6.17;3.40;;;34.10;29.70;;;;;;5063720;28;20404;-77
2021/06/18 12:53:37;;;;;;;6.60;3.77;;;34.00;29.40;;;;;;5049626;28;20427;-78
2021/06/18 12:56:40;;;;;;;13.33;5.00;;;34.00;30.10;;;;;;5045177;28;20490;-77